Time;durP1;ratioP1;P1;durP2;ratioP2;P2;SDS_P1;SDS_P2;PMS_P1;PMS_P2;Temp;Humidity;BMP_temperature;BMP_pressure;BME280_temperature;BME280_humidity;BME280_pressure;Samples;Min_cycle;Max_cycle;Signal;HPM_P1;HPM_P2
2022/03/27 00:00:34;;;;;;;30.42;13.25;;;7.70;42.50;;;;;;5037607;28;20065;-62
2022/03/27 00:03:00;;;;;;;33.90;12.20;;;7.60;42.50;;;;;;5057289;28;20033;-62
2022/03/27 00:05:25;;;;;;;26.33;13.15;;;7.70;42.80;;;;;;5026780;28;20030;-63
2022/03/27 00:07:51;;;;;;;23.45;12.35;;;7.60;42.90;;;;;;5028676;28;20025;-62
2022/03/27 00:10:17;;;;;;;30.58;12.70;;;7.60;42.90;;;;;;5054703;28;20040;-63
2022/03/27 00:12:43;;;;;;;31.02;12.73;;;7.60;43.00;;;;;;5029877;28;20414;-62
2022/03/27 00:15:09;;;;;;;25.50;12.10;;;7.50;43.00;;;;;;5056079;28;20151;-64
2022/03/27 00:17:35;;;;;;;26.27;11.98;;;7.50;43.00;;;;;;5049178;28;20131;-62
2022/03/27 00:20:03;;;;;;;25.45;11.52;;;7.50;43.00;;;;;;5031808;28;20098;-62
2022/03/27 00:22:29;;;;;;;30.58;12.43;;;7.50;43.20;;;;;;5032752;28;20026;-63
2022/03/27 00:24:56;;;;;;;34.28;11.73;;;7.40;43.40;;;;;;5058646;28;20055;-62
2022/03/27 00:27:22;;;;;;;32.85;12.52;;;7.40;43.70;;;;;;5050900;28;20520;-63
2022/03/27 00:29:47;;;;;;;31.15;11.85;;;7.30;43.80;;;;;;5048695;28;20024;-62
2022/03/27 00:32:13;;;;;;;32.95;13.02;;;7.30;43.90;;;;;;5048403;28;20028;-62
2022/03/27 00:34:39;;;;;;;32.80;12.93;;;7.30;44.10;;;;;;5049107;28;20025;-62
2022/03/27 00:37:04;;;;;;;30.10;11.13;;;7.20;44.00;;;;;;5055921;28;20063;-62
2022/03/27 00:39:30;;;;;;;34.42;11.25;;;7.20;44.00;;;;;;5061540;28;20037;-62
2022/03/27 00:41:56;;;;;;;31.60;10.90;;;7.20;44.10;;;;;;5036877;28;20049;-62
2022/03/27 00:44:21;;;;;;;23.55;10.15;;;7.10;44.10;;;;;;5064111;28;20025;-62
2022/03/27 00:46:47;;;;;;;22.05;9.90;;;7.10;44.30;;;;;;5034416;28;20553;-63
2022/03/27 00:49:13;;;;;;;27.25;10.88;;;7.10;44.50;;;;;;5065805;28;20044;-64
2022/03/27 00:51:39;;;;;;;26.83;10.82;;;7.00;44.50;;;;;;5043328;28;20029;-62
2022/03/27 00:54:05;;;;;;;21.50;9.95;;;7.00;44.40;;;;;;5061059;28;20037;-62
2022/03/27 00:56:31;;;;;;;22.55;10.10;;;7.00;44.30;;;;;;5033305;28;20049;-63
2022/03/27 00:58:57;;;;;;;21.48;9.35;;;6.90;44.40;;;;;;5044847;28;20037;-62
2022/03/27 01:01:31;;;;;;;23.67;10.30;;;6.90;44.70;;;;;;5058601;28;20120;-63
2022/03/27 01:03:58;;;;;;;19.90;8.63;;;6.80;44.90;;;;;;5056473;28;20040;-62
2022/03/27 01:06:33;;;;;;;27.65;10.45;;;6.90;45.00;;;;;;5055316;28;20017;-62
2022/03/27 01:11:46;;;;;;;20.60;8.02;;;6.80;45.00;;;;;;5050638;28;20099;-61
2022/03/27 01:14:13;;;;;;;19.20;8.25;;;6.70;44.90;;;;;;5058613;28;20025;-62
2022/03/27 01:16:45;;;;;;;23.27;8.27;;;6.70;45.10;;;;;;5055253;28;20021;-62
2022/03/27 01:19:14;;;;;;;19.25;8.00;;;6.60;45.30;;;;;;5050191;28;20060;-62
2022/03/27 01:21:43;;;;;;;20.45;8.93;;;6.60;45.40;;;;;;5057688;28;20028;-62
2022/03/27 01:24:10;;;;;;;24.90;8.30;;;6.60;45.40;;;;;;5059777;28;20025;-63
2022/03/27 01:26:37;;;;;;;18.67;8.27;;;6.60;45.50;;;;;;5031839;28;20068;-61
2022/03/27 01:29:04;;;;;;;26.88;10.95;;;6.60;45.70;;;;;;5047641;28;20120;-62
2022/03/27 01:31:30;;;;;;;23.73;10.07;;;6.50;45.80;;;;;;5056150;28;20021;-62
2022/03/27 01:33:56;;;;;;;20.35;9.50;;;6.50;45.70;;;;;;5051108;28;20060;-62
2022/03/27 01:36:34;;;;;;;28.10;9.95;;;6.50;45.80;;;;;;5056544;28;20033;-61
2022/03/27 01:39:01;;;;;;;28.05;9.43;;;6.40;46.20;;;;;;5045995;28;20026;-61
2022/03/27 01:41:26;;;;;;;25.50;8.75;;;6.40;45.80;;;;;;5044768;28;20052;-62
2022/03/27 01:43:52;;;;;;;22.95;9.55;;;6.40;45.90;;;;;;5038484;28;20029;-64
2022/03/27 01:46:18;;;;;;;24.73;8.73;;;6.30;45.80;;;;;;5048502;28;20026;-63
2022/03/27 01:48:44;;;;;;;21.23;9.93;;;6.30;46.00;;;;;;5045579;28;20033;-62
2022/03/27 01:51:10;;;;;;;25.80;9.07;;;6.30;46.20;;;;;;5049885;28;20033;-62
2022/03/27 01:53:37;;;;;;;24.27;8.77;;;6.20;46.20;;;;;;5038495;28;20056;-61
2022/03/27 01:56:04;;;;;;;19.00;7.90;;;6.20;46.20;;;;;;5048205;28;20029;-62
2022/03/27 01:58:30;;;;;;;22.25;9.13;;;6.20;46.20;;;;;;5057370;28;20037;-63
2022/03/27 02:00:56;;;;;;;20.75;8.93;;;6.20;46.30;;;;;;5052753;28;20036;-62
2022/03/27 02:03:27;;;;;;;15.77;7.78;;;6.10;46.40;;;;;;5055162;28;20278;-62
2022/03/27 02:05:54;;;;;;;22.75;8.90;;;6.10;46.30;;;;;;5050310;28;20030;-63
2022/03/27 02:08:19;;;;;;;20.83;8.05;;;6.10;46.30;;;;;;5046963;28;20501;-62
2022/03/27 02:10:45;;;;;;;22.73;8.23;;;6.00;46.20;;;;;;5049043;28;20034;-62
2022/03/27 02:13:13;;;;;;;17.77;8.18;;;6.00;46.20;;;;;;5056589;28;20037;-63
2022/03/27 02:15:39;;;;;;;26.08;8.75;;;6.00;46.30;;;;;;5053548;28;20031;-62
2022/03/27 02:18:05;;;;;;;23.65;8.63;;;6.00;46.20;;;;;;5057742;28;20025;-62
2022/03/27 02:20:30;;;;;;;25.00;9.20;;;5.90;46.30;;;;;;5055756;28;20073;-63
2022/03/27 02:22:56;;;;;;;18.30;8.43;;;5.90;46.40;;;;;;5041627;28;20137;-62
2022/03/27 02:25:23;;;;;;;21.52;8.80;;;5.90;46.40;;;;;;5027496;28;20038;-64
2022/03/27 02:27:49;;;;;;;22.02;8.68;;;5.80;46.40;;;;;;5054379;28;20017;-64
2022/03/27 02:30:15;;;;;;;24.48;8.80;;;5.80;46.50;;;;;;5039072;28;20031;-61
2022/03/27 02:32:41;;;;;;;24.40;9.48;;;5.80;46.60;;;;;;5052657;28;20037;-61
2022/03/27 02:35:07;;;;;;;23.92;9.05;;;5.80;46.80;;;;;;5052261;28;20029;-61
2022/03/27 02:37:32;;;;;;;22.70;9.20;;;5.70;46.80;;;;;;5059837;28;20033;-61
2022/03/27 02:39:58;;;;;;;27.30;8.88;;;5.70;46.80;;;;;;5036311;28;21943;-61
2022/03/27 02:42:24;;;;;;;18.98;8.43;;;5.70;46.90;;;;;;5050235;28;20021;-62
2022/03/27 02:44:49;;;;;;;20.45;8.90;;;5.70;46.90;;;;;;5044377;28;20620;-61
2022/03/27 02:47:16;;;;;;;25.58;9.80;;;5.60;47.00;;;;;;5026512;28;20040;-63
2022/03/27 02:49:42;;;;;;;22.55;8.68;;;5.60;47.00;;;;;;5048658;28;20031;-62
2022/03/27 02:52:07;;;;;;;27.20;9.15;;;5.60;46.90;;;;;;5046644;28;20105;-62
2022/03/27 02:54:33;;;;;;;18.48;8.48;;;5.60;47.60;;;;;;5057799;28;20025;-62
2022/03/27 02:56:58;;;;;;;28.85;8.73;;;5.60;47.00;;;;;;5056668;28;20053;-63
2022/03/27 02:59:25;;;;;;;20.67;8.80;;;5.60;47.10;;;;;;5052948;28;20042;-62
2022/03/27 03:01:51;;;;;;;19.52;8.93;;;5.50;47.10;;;;;;5042961;28;20032;-63
2022/03/27 03:04:16;;;;;;;24.52;9.07;;;5.50;47.30;;;;;;5046331;28;20025;-62
2022/03/27 03:06:42;;;;;;;25.00;8.77;;;5.50;47.30;;;;;;5056018;28;20033;-62
2022/03/27 03:09:08;;;;;;;24.17;8.63;;;5.40;47.30;;;;;;5033418;28;20049;-64
2022/03/27 03:11:34;;;;;;;18.10;8.50;;;5.40;47.40;;;;;;5046987;28;20147;-63
2022/03/27 03:14:00;;;;;;;18.77;8.95;;;5.40;47.40;;;;;;5057034;28;20024;-63
2022/03/27 03:16:27;;;;;;;20.38;8.18;;;5.40;47.40;;;;;;5052604;28;20031;-64
2022/03/27 03:18:53;;;;;;;19.00;8.73;;;5.40;47.50;;;;;;5043678;28;20112;-62
2022/03/27 03:21:21;;;;;;;25.00;9.07;;;5.40;47.70;;;;;;5044341;28;20072;-62
2022/03/27 03:23:47;;;;;;;18.17;8.63;;;5.30;47.80;;;;;;5046004;28;20032;-63
2022/03/27 03:26:13;;;;;;;20.20;8.73;;;5.30;47.80;;;;;;5044552;28;20398;-62
2022/03/27 03:28:38;;;;;;;27.55;9.85;;;5.30;47.80;;;;;;5055452;28;20030;-62
2022/03/27 03:31:05;;;;;;;26.58;9.18;;;5.20;47.80;;;;;;5051052;28;20043;-62
2022/03/27 03:33:31;;;;;;;21.35;9.13;;;5.30;47.70;;;;;;5029520;28;20053;-62
2022/03/27 03:35:57;;;;;;;20.05;9.15;;;5.20;47.70;;;;;;5052295;28;20127;-62
2022/03/27 03:38:23;;;;;;;22.10;8.90;;;5.20;47.80;;;;;;5050930;28;20033;-62
2022/03/27 03:40:49;;;;;;;23.38;8.43;;;5.20;47.90;;;;;;5044886;28;20080;-62
2022/03/27 03:43:14;;;;;;;23.15;8.43;;;5.10;48.00;;;;;;5026707;28;20026;-62
2022/03/27 03:45:41;;;;;;;22.92;8.18;;;5.10;48.00;;;;;;5036818;28;20069;-62
2022/03/27 03:48:07;;;;;;;20.88;8.23;;;5.10;48.40;;;;;;5044384;28;20477;-62
2022/03/27 03:50:35;;;;;;;18.65;8.60;;;5.10;48.60;;;;;;5026190;28;20041;-63
2022/03/27 03:53:01;;;;;;;21.30;8.98;;;5.10;48.60;;;;;;5056022;28;20069;-63
2022/03/27 03:55:28;;;;;;;20.90;8.93;;;5.10;48.60;;;;;;5043538;28;20040;-61
2022/03/27 03:57:54;;;;;;;25.30;9.55;;;5.00;48.60;;;;;;5039320;28;20034;-61
2022/03/27 04:00:20;;;;;;;20.75;8.65;;;5.20;48.70;;;;;;5073962;28;20513;-63
2022/03/27 04:02:45;;;;;;;20.05;8.68;;;5.00;48.60;;;;;;5026744;28;20049;-63
2022/03/27 04:05:11;;;;;;;26.73;8.65;;;5.00;48.90;;;;;;5052428;28;20025;-61
2022/03/27 04:07:37;;;;;;;18.13;8.15;;;4.90;48.80;;;;;;5051330;28;20041;-61
2022/03/27 04:10:03;;;;;;;20.80;8.60;;;4.90;48.80;;;;;;5046156;28;20033;-61
2022/03/27 04:12:29;;;;;;;22.52;8.98;;;4.90;48.70;;;;;;5057175;28;20489;-63
2022/03/27 04:14:55;;;;;;;15.85;8.35;;;4.90;48.70;;;;;;5044557;28;20033;-61
2022/03/27 04:17:20;;;;;;;19.67;7.80;;;4.90;48.70;;;;;;5045032;28;20036;-61
2022/03/27 04:19:46;;;;;;;20.98;8.82;;;4.90;48.70;;;;;;5061601;28;20037;-60
2022/03/27 04:22:12;;;;;;;19.67;8.45;;;4.80;48.70;;;;;;5049898;28;20036;-62
2022/03/27 04:24:37;;;;;;;36.38;8.43;;;4.80;48.80;;;;;;5047733;28;20413;-63
2022/03/27 04:27:03;;;;;;;23.85;8.95;;;4.80;48.90;;;;;;5028100;28;20037;-62
2022/03/27 04:29:29;;;;;;;25.20;8.82;;;4.80;48.90;;;;;;5040311;28;20167;-62
2022/03/27 04:31:54;;;;;;;17.45;8.38;;;4.70;48.70;;;;;;5051021;28;20401;-62
2022/03/27 04:34:20;;;;;;;24.27;8.57;;;4.80;48.90;;;;;;5051173;28;20026;-62
2022/03/27 04:36:46;;;;;;;25.92;8.52;;;4.70;49.00;;;;;;5051122;28;20021;-63
2022/03/27 04:39:12;;;;;;;21.90;8.52;;;4.80;49.10;;;;;;5054287;28;20111;-62
2022/03/27 04:41:38;;;;;;;23.23;9.15;;;4.70;49.00;;;;;;5057958;28;20084;-63
2022/03/27 04:44:04;;;;;;;21.67;8.73;;;4.60;49.10;;;;;;5050926;28;20053;-62
2022/03/27 04:46:31;;;;;;;18.92;8.60;;;4.60;49.10;;;;;;5044295;28;20030;-62
2022/03/27 04:48:57;;;;;;;16.38;8.07;;;4.60;49.10;;;;;;5043375;28;20017;-62
2022/03/27 04:51:22;;;;;;;20.35;8.23;;;4.70;49.10;;;;;;5046748;28;20127;-62
2022/03/27 04:53:49;;;;;;;20.38;7.97;;;4.60;49.10;;;;;;5029186;28;20072;-64
2022/03/27 04:56:15;;;;;;;16.95;8.32;;;4.50;49.10;;;;;;5037380;28;20038;-62
2022/03/27 04:58:41;;;;;;;22.92;8.32;;;4.50;49.10;;;;;;5045698;28;20104;-63
2022/03/27 05:01:07;;;;;;;20.70;8.80;;;4.50;49.20;;;;;;5052904;28;20041;-63
2022/03/27 05:03:33;;;;;;;24.80;9.45;;;4.60;49.30;;;;;;5051854;28;20021;-64
2022/03/27 05:05:59;;;;;;;23.10;9.38;;;4.70;49.40;;;;;;5043432;28;20036;-64
2022/03/27 05:08:25;;;;;;;22.73;8.90;;;4.50;49.40;;;;;;5039841;28;20033;-62
2022/03/27 05:10:51;;;;;;;21.08;9.55;;;4.50;49.30;;;;;;5026902;28;20029;-62
2022/03/27 05:13:18;;;;;;;20.25;8.63;;;4.50;49.30;;;;;;5051057;28;20053;-62
2022/03/27 05:15:44;;;;;;;14.73;7.75;;;4.40;49.50;;;;;;5052144;28;20021;-63
2022/03/27 05:18:10;;;;;;;16.67;8.57;;;4.40;50.00;;;;;;5048300;28;20055;-63
2022/03/27 05:20:41;;;;;;;24.15;8.73;;;4.40;49.50;;;;;;5049827;28;20056;-64
2022/03/27 05:23:07;;;;;;;22.00;7.75;;;4.40;49.70;;;;;;5047431;28;20025;-62
2022/03/27 05:25:40;;;;;;;16.23;7.70;;;4.40;49.60;;;;;;5048557;28;20045;-62
2022/03/27 05:28:07;;;;;;;18.13;7.82;;;4.40;49.60;;;;;;5052677;28;20092;-62
2022/03/27 05:30:33;;;;;;;21.10;8.50;;;4.40;49.80;;;;;;5047984;28;20017;-62
2022/03/27 05:32:59;;;;;;;15.95;8.15;;;4.40;50.20;;;;;;5060682;28;20035;-62
2022/03/27 05:35:26;;;;;;;17.27;8.55;;;4.50;50.20;;;;;;5058820;28;20025;-63
2022/03/27 05:37:52;;;;;;;25.23;9.15;;;4.40;50.30;;;;;;5060474;28;20033;-61
2022/03/27 05:40:20;;;;;;;17.13;7.95;;;4.40;50.20;;;;;;5060500;28;20033;-64
2022/03/27 05:42:47;;;;;;;18.20;7.85;;;4.40;50.30;;;;;;5030099;28;20033;-62
2022/03/27 05:45:13;;;;;;;15.95;8.30;;;4.40;50.20;;;;;;5048737;28;20025;-61
2022/03/27 05:47:43;;;;;;;24.73;8.63;;;4.50;50.20;;;;;;5045876;28;20037;-62
2022/03/27 05:50:19;;;;;;;21.67;8.50;;;4.50;50.40;;;;;;5040034;28;20436;-61
2022/03/27 05:52:45;;;;;;;15.13;7.97;;;4.50;51.10;;;;;;5047068;28;20044;-62
2022/03/27 05:55:12;;;;;;;16.88;9.13;;;4.60;50.70;;;;;;5053288;28;20033;-61
2022/03/27 05:57:38;;;;;;;21.85;9.40;;;4.60;50.80;;;;;;5045733;28;20036;-62
2022/03/27 06:00:06;;;;;;;20.92;9.10;;;4.70;50.90;;;;;;5043733;28;20089;-62
2022/03/27 06:02:32;;;;;;;18.90;9.00;;;4.80;51.00;;;;;;5051986;28;20033;-63
2022/03/27 06:04:58;;;;;;;26.23;9.65;;;4.90;50.90;;;;;;5054279;28;20029;-62
2022/03/27 06:07:24;;;;;;;20.15;11.00;;;4.90;50.90;;;;;;5052323;28;20029;-62
2022/03/27 06:09:51;;;;;;;25.55;10.20;;;5.00;50.90;;;;;;5053773;28;20068;-62
2022/03/27 06:12:17;;;;;;;23.23;8.98;;;5.10;51.50;;;;;;5057014;28;20112;-61
2022/03/27 06:14:43;;;;;;;23.67;9.40;;;5.10;50.80;;;;;;5046448;28;20040;-62
2022/03/27 06:17:11;;;;;;;24.10;9.18;;;5.30;50.90;;;;;;5049832;28;20068;-62
2022/03/27 06:19:37;;;;;;;15.77;8.18;;;5.40;51.20;;;;;;5048833;28;20045;-62
2022/03/27 06:22:02;;;;;;;22.38;9.10;;;5.50;51.00;;;;;;5049210;28;20052;-62
2022/03/27 06:24:28;;;;;;;20.58;8.50;;;5.60;51.00;;;;;;5046459;28;20037;-62
2022/03/27 06:26:54;;;;;;;17.48;8.05;;;5.70;51.10;;;;;;5051375;28;20031;-62
2022/03/27 06:29:21;;;;;;;24.15;8.40;;;5.80;51.10;;;;;;5052331;28;20057;-62
2022/03/27 06:31:48;;;;;;;15.75;6.93;;;5.90;51.10;;;;;;5050948;28;20036;-62
2022/03/27 06:34:14;;;;;;;18.30;8.13;;;6.10;51.00;;;;;;5050328;28;20036;-62
2022/03/27 06:36:41;;;;;;;20.95;8.02;;;6.20;50.90;;;;;;5054218;28;20037;-61
2022/03/27 06:39:08;;;;;;;16.60;8.48;;;6.40;51.00;;;;;;5044569;28;20029;-62
2022/03/27 06:41:34;;;;;;;22.92;8.38;;;6.50;50.90;;;;;;5049035;28;20033;-62
2022/03/27 06:43:59;;;;;;;23.95;8.38;;;6.70;51.00;;;;;;5030625;28;20029;-63
2022/03/27 06:46:25;;;;;;;14.05;7.65;;;6.80;50.90;;;;;;5050208;28;20041;-62
2022/03/27 06:48:51;;;;;;;17.45;8.43;;;6.90;50.80;;;;;;5055891;28;20030;-62
2022/03/27 06:51:18;;;;;;;19.25;9.20;;;7.10;50.70;;;;;;5049236;28;20029;-62
2022/03/27 06:53:45;;;;;;;17.55;9.68;;;7.30;50.60;;;;;;5045467;28;20079;-63
2022/03/27 06:56:10;;;;;;;19.20;10.45;;;7.40;50.40;;;;;;5028551;28;20508;-62
2022/03/27 06:58:36;;;;;;;21.80;10.00;;;7.60;50.40;;;;;;5044653;28;20029;-62
2022/03/27 07:03:46;;;;;;;21.73;8.50;;;8.00;50.10;;;;;;5052432;28;20110;-62
2022/03/27 07:06:14;;;;;;;20.58;9.05;;;8.10;50.00;;;;;;5046783;28;20078;-62
2022/03/27 07:08:41;;;;;;;21.42;9.25;;;8.30;49.90;;;;;;5027002;28;20021;-62
2022/03/27 07:11:07;;;;;;;25.70;10.80;;;8.50;49.70;;;;;;5058441;28;20025;-63
2022/03/27 07:13:34;;;;;;;22.55;10.25;;;8.60;49.60;;;;;;5046389;28;20060;-62
2022/03/27 07:15:59;;;;;;;24.65;10.25;;;8.80;49.60;;;;;;5055514;28;20044;-62
2022/03/27 07:18:25;;;;;;;19.80;9.27;;;9.20;49.60;;;;;;5045198;28;20040;-62
2022/03/27 07:20:51;;;;;;;20.38;9.70;;;9.20;49.40;;;;;;5051648;28;20061;-62
2022/03/27 07:23:19;;;;;;;18.80;9.30;;;9.40;49.20;;;;;;5045324;28;20029;-63
2022/03/27 07:25:52;;;;;;;21.92;9.90;;;9.50;49.10;;;;;;5059425;28;20116;-63
2022/03/27 07:28:21;;;;;;;16.92;9.55;;;9.80;49.10;;;;;;5060893;28;20029;-63
2022/03/27 07:30:47;;;;;;;18.90;9.35;;;9.90;48.80;;;;;;5045945;28;20032;-62
2022/03/27 07:33:14;;;;;;;14.40;8.90;;;10.10;48.70;;;;;;5040544;28;20044;-63
2022/03/27 07:35:40;;;;;;;23.42;10.80;;;10.30;48.50;;;;;;5049195;28;20032;-62
2022/03/27 07:38:06;;;;;;;22.92;10.20;;;10.50;48.30;;;;;;5044369;28;20085;-63
2022/03/27 07:40:32;;;;;;;14.30;8.30;;;10.70;48.20;;;;;;5032113;28;20067;-62
2022/03/27 07:42:58;;;;;;;23.83;10.52;;;10.90;48.00;;;;;;5052015;28;20040;-64
2022/03/27 07:45:27;;;;;;;17.98;9.52;;;11.20;47.90;;;;;;5031195;28;20041;-61
2022/03/27 07:48:08;;;;;;;23.70;9.68;;;11.30;47.80;;;;;;5049698;28;20084;-63
2022/03/27 07:50:34;;;;;;;18.95;9.88;;;11.60;47.60;;;;;;5044711;28;20053;-63
2022/03/27 07:53:01;;;;;;;18.73;9.98;;;11.80;47.40;;;;;;5047454;28;20445;-62
2022/03/27 07:55:27;;;;;;;19.48;9.50;;;12.00;47.20;;;;;;5048544;28;20021;-62
2022/03/27 07:57:53;;;;;;;22.08;10.52;;;12.20;47.00;;;;;;5043355;28;20061;-63
2022/03/27 08:00:19;;;;;;;16.73;9.10;;;12.40;46.80;;;;;;5041131;28;20021;-62
2022/03/27 08:02:45;;;;;;;19.58;10.68;;;12.60;46.60;;;;;;5044071;28;20033;-62
2022/03/27 08:05:12;;;;;;;24.02;9.98;;;12.90;46.40;;;;;;5046329;28;20028;-63
2022/03/27 08:07:38;;;;;;;19.45;10.45;;;13.00;46.00;;;;;;5048529;28;20025;-63
2022/03/27 08:10:05;;;;;;;20.52;9.35;;;13.20;45.80;;;;;;5044667;28;20025;-63
2022/03/27 08:12:30;;;;;;;17.38;9.55;;;13.40;45.60;;;;;;5043690;28;20033;-64
2022/03/27 08:14:56;;;;;;;21.77;10.20;;;13.60;45.50;;;;;;5024055;28;20025;-62
2022/03/27 08:17:22;;;;;;;20.92;10.13;;;13.80;45.00;;;;;;5044341;28;20032;-63
2022/03/27 08:19:49;;;;;;;19.58;10.00;;;13.90;44.80;;;;;;5047051;28;20061;-64
2022/03/27 08:22:15;;;;;;;16.98;9.77;;;14.10;44.50;;;;;;5045037;28;20113;-64
2022/03/27 08:24:41;;;;;;;23.45;10.65;;;14.20;44.40;;;;;;5027991;28;20021;-63
2022/03/27 08:27:08;;;;;;;31.23;12.38;;;14.30;44.20;;;;;;5045933;28;20035;-61
2022/03/27 08:29:35;;;;;;;19.60;9.80;;;14.50;43.90;;;;;;5040785;28;20017;-63
2022/03/27 08:32:04;;;;;;;19.35;10.10;;;14.70;43.70;;;;;;5044136;28;20033;-63
2022/03/27 08:34:31;;;;;;;19.35;9.98;;;14.90;43.40;;;;;;5028569;28;20389;-63
2022/03/27 08:36:58;;;;;;;21.50;10.90;;;15.10;43.20;;;;;;5050068;28;20076;-62
2022/03/27 08:39:25;;;;;;;21.05;11.00;;;15.30;42.90;;;;;;5044032;28;20088;-63
2022/03/27 08:41:53;;;;;;;22.20;11.02;;;15.50;42.70;;;;;;5043614;28;20097;-63
2022/03/27 08:44:19;;;;;;;22.73;11.75;;;15.60;42.10;;;;;;5047977;28;20060;-63
2022/03/27 08:46:46;;;;;;;21.88;10.90;;;15.90;41.60;;;;;;5032676;28;20025;-63
2022/03/27 08:49:43;;;;;;;26.35;10.80;;;16.00;41.20;;;;;;5033026;28;20033;-64
2022/03/27 08:52:28;;;;;;;21.55;10.88;;;16.20;40.00;;;;;;5041730;28;20481;-61
2022/03/27 08:55:02;;;;;;;24.55;10.35;;;16.40;40.20;;;;;;5028696;28;20037;-63
2022/03/27 08:57:37;;;;;;;33.47;12.32;;;16.60;39.30;;;;;;5039135;28;20053;-64
2022/03/27 09:00:04;;;;;;;22.98;10.98;;;16.80;39.20;;;;;;5044906;28;20026;-62
2022/03/27 09:02:31;;;;;;;18.77;10.80;;;16.90;39.50;;;;;;5048244;28;20037;-63
2022/03/27 09:04:59;;;;;;;26.33;12.80;;;17.10;39.10;;;;;;5048199;28;20028;-63
2022/03/27 09:07:28;;;;;;;23.65;11.05;;;17.30;38.50;;;;;;5042267;28;20037;-64
2022/03/27 09:09:56;;;;;;;25.73;12.15;;;17.40;38.40;;;;;;5041115;28;20040;-62
2022/03/27 09:12:22;;;;;;;25.77;11.70;;;17.50;38.00;;;;;;5040165;28;20026;-62
2022/03/27 09:14:48;;;;;;;24.85;11.85;;;17.70;37.80;;;;;;5051215;28;20025;-61
2022/03/27 09:17:15;;;;;;;22.88;11.93;;;17.80;37.20;;;;;;5041680;28;20082;-62
2022/03/27 09:19:51;;;;;;;26.25;11.85;;;17.90;37.20;;;;;;5049893;28;20037;-62
2022/03/27 09:22:22;;;;;;;18.70;10.75;;;18.10;36.40;;;;;;5044801;28;20036;-62
2022/03/27 09:24:58;;;;;;;27.88;11.82;;;18.20;36.40;;;;;;5028569;28;20029;-64
2022/03/27 09:27:36;;;;;;;31.08;11.50;;;18.30;36.40;;;;;;5036703;28;20045;-63
2022/03/27 09:30:07;;;;;;;22.20;11.00;;;18.50;35.70;;;;;;5034826;28;20014;-64
2022/03/27 09:32:38;;;;;;;25.75;12.57;;;18.60;35.90;;;;;;5027100;28;20026;-63
2022/03/27 09:35:07;;;;;;;24.83;10.38;;;18.70;35.20;;;;;;5023780;28;20116;-63
2022/03/27 09:37:35;;;;;;;28.52;11.90;;;18.80;35.00;;;;;;5029369;28;20086;-62
2022/03/27 09:40:03;;;;;;;20.88;11.13;;;18.90;34.90;;;;;;5028676;28;20114;-62
2022/03/27 09:42:28;;;;;;;23.40;11.70;;;19.10;34.70;;;;;;5031717;28;20057;-63
2022/03/27 09:45:16;;;;;;;23.40;11.82;;;19.20;34.30;;;;;;5040209;28;20033;-63
2022/03/27 09:47:44;;;;;;;25.67;12.30;;;19.30;34.00;;;;;;5041179;28;20600;-64
2022/03/27 09:50:36;;;;;;;19.92;10.35;;;19.40;34.00;;;;;;5034520;28;20220;-62
2022/03/27 09:53:21;;;;;;;21.65;10.68;;;19.50;32.40;;;;;;5023931;28;20070;-62
2022/03/27 09:55:53;;;;;;;22.70;11.23;;;19.60;31.70;;;;;;5026744;28;20022;-64
2022/03/27 09:58:44;;;;;;;19.67;11.48;;;19.60;32.10;;;;;;5005833;28;20084;-63
2022/03/27 10:01:13;;;;;;;19.30;10.68;;;19.80;31.90;;;;;;5020594;28;20038;-62
2022/03/27 10:04:01;;;;;;;21.85;11.27;;;19.80;32.20;;;;;;5016717;28;20056;-62
2022/03/27 10:06:38;;;;;;;23.90;10.65;;;19.80;31.50;;;;;;5019958;28;20084;-63
2022/03/27 10:09:06;;;;;;;20.45;10.55;;;20.00;31.60;;;;;;5021845;28;20028;-64
2022/03/27 10:11:33;;;;;;;17.20;9.98;;;20.00;31.80;;;;;;5024543;28;20117;-64
2022/03/27 10:13:59;;;;;;;18.80;9.50;;;20.10;31.40;;;;;;5023107;28;20378;-63
2022/03/27 10:16:30;;;;;;;21.15;10.57;;;20.20;31.10;;;;;;5018685;28;20045;-64
2022/03/27 10:19:02;;;;;;;20.40;10.23;;;20.30;30.40;;;;;;5023336;28;20033;-63
2022/03/27 10:21:29;;;;;;;20.48;10.63;;;20.40;30.40;;;;;;5023619;28;20091;-64
2022/03/27 10:24:12;;;;;;;20.80;10.00;;;20.50;30.40;;;;;;5012117;28;20026;-64
2022/03/27 10:26:40;;;;;;;23.55;11.05;;;20.60;30.00;;;;;;5031948;28;20037;-64
2022/03/27 10:29:07;;;;;;;19.50;9.48;;;20.70;29.70;;;;;;5023925;28;20042;-65
2022/03/27 10:31:33;;;;;;;24.58;11.27;;;20.80;29.90;;;;;;5016309;28;20118;-64
2022/03/27 10:34:01;;;;;;;20.90;9.65;;;20.90;29.60;;;;;;5023898;28;20034;-64
2022/03/27 10:36:59;;;;;;;17.67;10.55;;;20.90;29.60;;;;;;4999491;28;20102;-64
2022/03/27 10:39:37;;;;;;;20.02;10.65;;;21.00;28.30;;;;;;5006539;28;20038;-64
2022/03/27 10:42:32;;;;;;;18.10;9.48;;;21.10;29.20;;;;;;5012575;28;21141;-64
2022/03/27 10:45:03;;;;;;;18.02;9.75;;;21.20;28.60;;;;;;5023402;28;20495;-64
2022/03/27 10:47:30;;;;;;;19.50;10.93;;;21.30;29.00;;;;;;5010188;28;20082;-63
2022/03/27 10:50:01;;;;;;;23.65;10.82;;;21.40;28.80;;;;;;5006304;28;20025;-65
2022/03/27 10:52:42;;;;;;;20.38;10.90;;;21.50;28.70;;;;;;5020761;28;20041;-64
2022/03/27 10:55:16;;;;;;;20.00;10.35;;;21.60;28.30;;;;;;5009543;28;20061;-64
2022/03/27 10:57:47;;;;;;;23.95;14.05;;;21.70;28.60;;;;;;5005210;28;20089;-64
2022/03/27 11:00:14;;;;;;;29.77;14.02;;;21.80;28.40;;;;;;5010008;28;20112;-64
2022/03/27 11:02:47;;;;;;;24.75;13.27;;;21.80;28.10;;;;;;5011732;28;20018;-62
2022/03/27 11:05:31;;;;;;;22.27;13.13;;;21.90;28.00;;;;;;5023363;28;20084;-64
2022/03/27 11:08:18;;;;;;;18.70;10.93;;;22.00;27.70;;;;;;5020973;28;20033;-65
2022/03/27 11:10:54;;;;;;;20.00;11.25;;;22.10;27.40;;;;;;5031058;28;20085;-62
2022/03/27 11:13:28;;;;;;;22.38;11.70;;;22.10;27.40;;;;;;5031556;28;20038;-65
2022/03/27 11:16:14;;;;;;;19.20;12.40;;;22.20;27.20;;;;;;5010494;28;20034;-63
2022/03/27 11:18:45;;;;;;;19.05;11.50;;;22.20;26.70;;;;;;5006302;28;20031;-62
2022/03/27 11:21:34;;;;;;;22.45;12.05;;;22.30;27.20;;;;;;5019627;28;20037;-63
2022/03/27 11:24:03;;;;;;;23.40;11.43;;;22.40;27.20;;;;;;5031396;28;20042;-64
2022/03/27 11:26:29;;;;;;;22.00;12.65;;;22.40;27.20;;;;;;5024205;28;20030;-63
2022/03/27 11:29:22;;;;;;;33.03;12.45;;;22.50;27.20;;;;;;5044627;28;20045;-64
2022/03/27 11:32:09;;;;;;;27.08;11.88;;;22.60;26.30;;;;;;5026875;28;20022;-64
2022/03/27 11:34:35;;;;;;;22.73;12.60;;;22.70;26.70;;;;;;5026550;28;20085;-64
2022/03/27 11:37:13;;;;;;;23.63;12.88;;;22.80;26.60;;;;;;5022241;28;20035;-64
2022/03/27 11:39:39;;;;;;;22.50;11.82;;;22.90;25.90;;;;;;5031027;28;20055;-64
2022/03/27 11:42:41;;;;;;;22.70;12.35;;;22.90;26.90;;;;;;5029975;28;20026;-64
2022/03/27 11:45:10;;;;;;;21.65;11.77;;;23.00;26.60;;;;;;4967570;28;20163;-63
2022/03/27 11:47:41;;;;;;;28.08;13.20;;;23.10;26.20;;;;;;4943845;29;20062;-64
2022/03/27 11:50:08;;;;;;;25.05;12.00;;;23.10;26.60;;;;;;4952674;28;21325;-65
2022/03/27 11:52:34;;;;;;;19.85;11.98;;;23.20;26.30;;;;;;4972550;28;20051;-63
2022/03/27 11:55:09;;;;;;;20.65;11.70;;;23.20;26.80;;;;;;4987852;28;20054;-64
2022/03/27 11:57:45;;;;;;;20.52;11.38;;;23.20;25.50;;;;;;4997306;28;20030;-65
2022/03/27 12:00:13;;;;;;;20.25;12.18;;;23.30;26.30;;;;;;4996871;28;20054;-64
2022/03/27 12:02:43;;;;;;;22.40;11.30;;;23.40;26.10;;;;;;4989442;28;20078;-64
2022/03/27 12:05:11;;;;;;;30.45;12.00;;;23.40;25.80;;;;;;4992631;28;20458;-63
2022/03/27 12:07:56;;;;;;;20.00;11.65;;;23.50;25.90;;;;;;4996840;28;20416;-64
2022/03/27 12:10:23;;;;;;;23.48;11.48;;;23.60;25.10;;;;;;4982062;28;20023;-64
2022/03/27 12:13:02;;;;;;;17.50;11.05;;;23.60;25.50;;;;;;4990475;28;20447;-63
2022/03/27 12:15:46;;;;;;;17.48;11.10;;;23.70;25.20;;;;;;5000066;28;20026;-63
2022/03/27 12:18:13;;;;;;;19.90;10.80;;;23.70;24.70;;;;;;5004101;28;20108;-64
2022/03/27 12:20:47;;;;;;;24.45;11.23;;;23.80;25.10;;;;;;5021810;28;20048;-64
2022/03/27 12:23:18;;;;;;;17.55;10.85;;;23.90;25.30;;;;;;5055265;28;20030;-64
2022/03/27 12:25:44;;;;;;;21.40;11.00;;;23.90;25.30;;;;;;5055944;28;20048;-64
2022/03/27 12:30:54;;;;;;;22.95;10.25;;;24.10;25.40;;;;;;5044716;28;20045;-64
2022/03/27 12:33:21;;;;;;;19.35;10.57;;;24.20;24.90;;;;;;5053596;28;20068;-64
2022/03/27 12:36:05;;;;;;;20.08;10.13;;;24.20;24.90;;;;;;5045901;28;20056;-64
2022/03/27 12:38:34;;;;;;;16.80;9.20;;;24.30;24.30;;;;;;5048310;28;20026;-63
2022/03/27 12:41:02;;;;;;;18.95;9.63;;;24.40;24.60;;;;;;5061106;28;20607;-65
2022/03/27 12:43:29;;;;;;;21.40;10.25;;;24.40;24.50;;;;;;5053826;28;20029;-64
2022/03/27 12:45:55;;;;;;;15.73;9.52;;;24.40;24.20;;;;;;5054098;28;20029;-63
2022/03/27 12:48:25;;;;;;;19.00;9.43;;;24.50;24.00;;;;;;4904408;28;20033;-63
2022/03/27 12:50:55;;;;;;;21.25;9.90;;;24.50;24.20;;;;;;5061567;28;20032;-65
2022/03/27 12:53:21;;;;;;;18.25;8.77;;;24.50;24.10;;;;;;5062646;28;20075;-64